WIMM/MES METAR and TAF weather

Enter ICAO airport designator
Station Type Date Time Source
WIMM METAR 2020/10/22 04:00 UTC NOAA

WIMM 220400Z 18003KT 9999 BKN017 28/25 Q1010 NOSIG


Station Type Date Time Source
WIMM Decoded METAR 2020/10/22 04:00 UTC NOAA

Medan / Polonia, Indonesia (WIMM) 03-34N 098-41E 25M
Oct 22, 2020 - 12:00 AM EDT / 2020.10.22 0400 UTC
Wind: from the S (180 degrees) at 3 MPH (3 KT):0
Visibility: greater than 7 mile(s):0
Sky conditions: mostly cloudy
Temperature: 82 F (28 C)
Dew Point: 77 F (25 C)
Relative Humidity: 83%
Pressure (altimeter): 29.83 in. Hg (1010 hPa)
ob: WIMM 220400Z 18003KT 9999 BKN017 28/25 Q1010 NOSIG
cycle: 4

Station Type Date Time Source
WIMM TAF 2020/10/21 18:09 UTC NOAA

TAF WIMM 211700Z 2118/2218 23004KT 5000 -RA FEW016CB SCT017
BECMG 2120/2122 HZ SCT017
BECMG 2202/2204 02008KT 8000 NSW
TEMPO 2208/2212 23010KT 3000 -RA FEW016CB BKN017
BECMG 2212/2214 VRB04KT 4000 HZ

Example: see airport list